Time;durP1;ratioP1;P1;durP2;ratioP2;P2;SDS_P1;SDS_P2;PMS_P1;PMS_P2;Temp;Humidity;BMP_temperature;BMP_pressure;BME280_temperature;BME280_humidity;BME280_pressure;Samples;Min_cycle;Max_cycle;Signal;HPM_P1;HPM_P2
2023/08/28 00:00:40;;;;;;;2.40;1.58;;;14.80;99.90;;;;;;5051420;28;20227;-56
2023/08/28 00:03:08;;;;;;;2.40;1.42;;;14.80;99.90;;;;;;5051118;28;20225;-57
2023/08/28 00:05:36;;;;;;;5.72;1.17;;;14.70;99.90;;;;;;5051135;28;20317;-57
2023/08/28 00:08:05;;;;;;;6.63;1.48;;;14.70;99.90;;;;;;5050889;28;20883;-52
2023/08/28 00:10:36;;;;;;;6.35;1.02;;;14.70;99.90;;;;;;5051098;28;20201;-54
2023/08/28 00:13:06;;;;;;;2.75;1.10;;;14.70;99.90;;;;;;5050930;28;20260;-53
2023/08/28 00:15:33;;;;;;;5.18;1.27;;;14.60;99.90;;;;;;5051049;28;20232;-53
2023/08/28 00:18:01;;;;;;;5.93;1.50;;;14.60;99.90;;;;;;5050979;28;20222;-53
2023/08/28 00:20:29;;;;;;;2.47;1.13;;;14.60;99.90;;;;;;5051237;28;20293;-53
2023/08/28 00:22:57;;;;;;;8.70;1.05;;;14.60;99.90;;;;;;5034709;28;20285;-53
2023/08/28 00:25:25;;;;;;;4.00;1.10;;;14.60;99.90;;;;;;5050783;28;20246;-52
2023/08/28 00:27:53;;;;;;;1.35;1.00;;;14.50;99.90;;;;;;5050843;28;20226;-53
2023/08/28 00:30:22;;;;;;;6.00;1.40;;;14.50;99.90;;;;;;5051295;28;20240;-54
2023/08/28 00:32:50;;;;;;;2.67;1.30;;;14.50;99.90;;;;;;5050912;28;20244;-52
2023/08/28 00:35:18;;;;;;;1.30;1.20;;;14.50;99.90;;;;;;5050746;28;20209;-52
2023/08/28 00:37:46;;;;;;;1.48;1.10;;;14.50;99.90;;;;;;5050788;28;20283;-56
2023/08/28 00:40:16;;;;;;;2.67;1.10;;;14.40;99.90;;;;;;5044934;28;20210;-52
2023/08/28 00:42:44;;;;;;;2.17;1.10;;;14.40;99.90;;;;;;5050992;28;20202;-53
2023/08/28 00:45:12;;;;;;;12.10;1.27;;;14.40;99.90;;;;;;5050444;28;20277;-56
2023/08/28 00:47:43;;;;;;;1.95;1.20;;;14.40;99.90;;;;;;5050831;28;20210;-57
2023/08/28 00:50:11;;;;;;;3.83;1.52;;;14.30;99.90;;;;;;5050673;28;20223;-53
2023/08/28 00:52:40;;;;;;;2.67;1.20;;;14.30;99.90;;;;;;5050825;28;20225;-56
2023/08/28 00:55:09;;;;;;;4.53;1.20;;;14.30;99.90;;;;;;5050568;28;20598;-57
2023/08/28 00:57:37;;;;;;;3.90;1.00;;;14.20;99.90;;;;;;5054296;28;20216;-53
2023/08/28 01:00:06;;;;;;;2.05;1.15;;;14.20;99.90;;;;;;5054454;28;20284;-53
2023/08/28 01:02:34;;;;;;;4.57;1.23;;;14.20;99.90;;;;;;5053477;28;20251;-55
2023/08/28 01:05:04;;;;;;;4.28;1.27;;;14.20;99.90;;;;;;5053304;28;20206;-57
2023/08/28 01:07:35;;;;;;;9.27;1.17;;;14.20;99.90;;;;;;5054254;28;20194;-52
2023/08/28 01:10:13;;;;;;;6.97;1.00;;;14.20;99.90;;;;;;5054156;28;20202;-52
2023/08/28 01:12:45;;;;;;;6.50;1.15;;;14.20;99.90;;;;;;5054159;28;20206;-53
2023/08/28 01:15:17;;;;;;;2.53;1.23;;;14.10;99.90;;;;;;5039467;28;20307;-52
2023/08/28 01:17:46;;;;;;;2.15;1.02;;;14.20;99.90;;;;;;5053376;28;20267;-54
2023/08/28 01:20:16;;;;;;;3.45;1.25;;;14.10;99.90;;;;;;5053956;28;20206;-52
2023/08/28 01:22:46;;;;;;;4.00;1.63;;;14.10;99.90;;;;;;5052259;28;20206;-52
2023/08/28 01:25:16;;;;;;;2.30;1.17;;;14.10;99.90;;;;;;5052879;28;20201;-52
2023/08/28 01:27:44;;;;;;;3.90;1.10;;;14.00;99.90;;;;;;5046482;28;20213;-53
2023/08/28 01:30:13;;;;;;;4.60;1.40;;;14.00;99.90;;;;;;5054003;28;20206;-53
2023/08/28 01:32:41;;;;;;;4.55;1.33;;;13.90;99.90;;;;;;5054135;28;20264;-52
2023/08/28 01:35:11;;;;;;;3.03;1.20;;;13.90;99.90;;;;;;5053569;28;20206;-52
2023/08/28 01:37:45;;;;;;;3.25;1.38;;;13.90;99.90;;;;;;5053950;28;20252;-57
2023/08/28 01:40:15;;;;;;;6.68;1.15;;;13.90;99.90;;;;;;5053548;28;20301;-58
2023/08/28 01:42:45;;;;;;;4.18;1.33;;;13.80;99.90;;;;;;5053903;28;20214;-57
2023/08/28 01:45:13;;;;;;;3.35;1.20;;;13.80;99.90;;;;;;5052771;28;20264;-55
2023/08/28 01:47:41;;;;;;;3.83;1.60;;;13.80;99.90;;;;;;5053710;28;20261;-53
2023/08/28 01:50:09;;;;;;;3.05;1.48;;;13.80;99.90;;;;;;5053535;28;20206;-52
2023/08/28 01:52:37;;;;;;;2.40;1.25;;;13.80;99.90;;;;;;5053543;28;20210;-52
2023/08/28 01:55:06;;;;;;;2.10;1.25;;;13.80;99.90;;;;;;5053465;28;20289;-53
2023/08/28 01:57:35;;;;;;;4.97;1.40;;;13.70;99.90;;;;;;5053555;28;20222;-53
2023/08/28 02:00:04;;;;;;;4.15;1.10;;;13.70;99.90;;;;;;5053230;28;20210;-52
2023/08/28 02:02:32;;;;;;;1.40;1.15;;;13.70;99.90;;;;;;5053610;28;20214;-53
2023/08/28 02:05:00;;;;;;;3.22;1.10;;;13.70;99.90;;;;;;5036780;28;20206;-53
2023/08/28 02:07:27;;;;;;;3.33;1.10;;;13.70;99.90;;;;;;5052016;28;20225;-54
2023/08/28 02:09:55;;;;;;;4.45;1.10;;;13.70;99.90;;;;;;5053109;28;20205;-53
2023/08/28 02:12:23;;;;;;;4.53;1.20;;;13.70;99.90;;;;;;5053523;28;20206;-54
2023/08/28 02:14:53;;;;;;;3.00;1.20;;;13.70;99.90;;;;;;5051291;28;20210;-54
2023/08/28 02:17:21;;;;;;;5.72;1.00;;;13.70;99.90;;;;;;5053049;28;20650;-55
2023/08/28 02:19:49;;;;;;;1.05;0.77;;;13.70;99.90;;;;;;5052843;28;20225;-55
2023/08/28 02:22:16;;;;;;;1.70;0.88;;;13.60;99.90;;;;;;5051044;28;20249;-55
2023/08/28 02:24:44;;;;;;;1.85;1.20;;;13.60;99.90;;;;;;5053205;28;20627;-57
2023/08/28 02:27:12;;;;;;;3.00;1.05;;;13.60;99.90;;;;;;5052980;28;20245;-53
2023/08/28 02:29:40;;;;;;;3.78;1.10;;;13.60;99.90;;;;;;5052690;28;20756;-53
2023/08/28 02:32:09;;;;;;;1.02;0.80;;;13.50;99.90;;;;;;5053048;28;20198;-53
2023/08/28 02:34:37;;;;;;;3.78;1.17;;;13.50;99.90;;;;;;5052318;28;20236;-63
2023/08/28 02:37:05;;;;;;;3.55;1.10;;;13.50;99.90;;;;;;5053107;28;20259;-55
2023/08/28 02:39:33;;;;;;;4.35;0.93;;;13.40;99.90;;;;;;5052289;28;20269;-59
2023/08/28 02:42:01;;;;;;;3.20;1.00;;;13.50;99.90;;;;;;5052606;28;20206;-53
2023/08/28 02:44:29;;;;;;;5.30;1.00;;;13.50;99.90;;;;;;5052441;28;20210;-54
2023/08/28 02:46:56;;;;;;;5.25;1.10;;;13.50;99.90;;;;;;5052208;28;20249;-53
2023/08/28 02:49:26;;;;;;;3.50;0.93;;;13.50;99.90;;;;;;5060405;28;20305;-53
2023/08/28 02:51:53;;;;;;;2.47;1.00;;;13.50;99.90;;;;;;5052774;28;20634;-56
2023/08/28 02:54:21;;;;;;;2.05;1.05;;;13.40;99.90;;;;;;5052396;28;20229;-57
2023/08/28 02:56:49;;;;;;;1.10;1.10;;;13.40;99.90;;;;;;5052213;28;20287;-52
2023/08/28 02:59:17;;;;;;;1.17;1.10;;;13.50;99.90;;;;;;5049550;28;20218;-52
2023/08/28 03:01:45;;;;;;;2.17;1.02;;;13.40;99.90;;;;;;5052244;28;20202;-57
2023/08/28 03:04:13;;;;;;;5.50;0.77;;;13.40;99.90;;;;;;5052231;28;20802;-52
2023/08/28 03:06:42;;;;;;;6.90;1.10;;;13.40;99.90;;;;;;5052220;28;20313;-52
2023/08/28 03:09:12;;;;;;;3.55;0.98;;;13.40;99.90;;;;;;5052141;28;20249;-53
2023/08/28 03:11:40;;;;;;;1.75;1.00;;;13.40;99.90;;;;;;5052350;28;20206;-57
2023/08/28 03:14:08;;;;;;;6.38;1.38;;;13.30;99.90;;;;;;5051903;28;20331;-58
2023/08/28 03:16:36;;;;;;;1.70;1.25;;;13.30;99.90;;;;;;5052059;28;20229;-53
2023/08/28 03:19:04;;;;;;;3.17;1.23;;;13.30;99.90;;;;;;5051723;28;20225;-53
2023/08/28 03:21:31;;;;;;;4.63;1.10;;;13.30;99.90;;;;;;5051974;28;20649;-53
2023/08/28 03:24:01;;;;;;;3.80;0.88;;;13.40;99.90;;;;;;5051765;28;20632;-53
2023/08/28 03:26:29;;;;;;;3.70;1.00;;;13.30;99.90;;;;;;5051567;28;20217;-57
2023/08/28 03:28:57;;;;;;;6.95;1.00;;;13.30;99.90;;;;;;5048916;28;20221;-53
2023/08/28 03:31:26;;;;;;;2.83;1.02;;;13.30;99.90;;;;;;5052056;28;20241;-53
2023/08/28 03:33:54;;;;;;;1.50;1.10;;;13.40;99.90;;;;;;5051773;28;20281;-53
2023/08/28 03:36:22;;;;;;;2.28;1.17;;;13.40;99.90;;;;;;5051661;28;20256;-53
2023/08/28 03:38:50;;;;;;;2.60;1.08;;;13.40;99.90;;;;;;5051571;28;20330;-54
2023/08/28 03:41:19;;;;;;;3.38;0.80;;;13.40;99.90;;;;;;5051383;28;20241;-54
2023/08/28 03:43:47;;;;;;;2.85;1.10;;;13.40;99.90;;;;;;5051434;28;20210;-58
2023/08/28 03:46:15;;;;;;;3.80;1.15;;;13.30;99.90;;;;;;5051347;28;20275;-53
2023/08/28 03:48:43;;;;;;;2.80;0.95;;;13.30;99.90;;;;;;5051315;28;20245;-53
2023/08/28 03:51:10;;;;;;;3.33;1.10;;;13.30;99.90;;;;;;5051670;28;20259;-53
2023/08/28 03:53:38;;;;;;;3.28;1.10;;;13.20;99.90;;;;;;5050160;28;20241;-57
2023/08/28 03:56:06;;;;;;;2.80;0.90;;;13.30;99.90;;;;;;5051350;28;20290;-53
2023/08/28 03:58:36;;;;;;;1.65;0.95;;;13.20;99.90;;;;;;5048453;28;20249;-53
2023/08/28 04:01:04;;;;;;;3.33;1.08;;;13.20;99.90;;;;;;5051446;28;20252;-57
2023/08/28 04:03:31;;;;;;;2.17;1.10;;;13.20;99.90;;;;;;5048535;28;20212;-56
2023/08/28 04:05:59;;;;;;;1.50;0.80;;;13.20;99.90;;;;;;5051269;28;20251;-60
2023/08/28 04:08:27;;;;;;;3.92;1.05;;;13.20;99.90;;;;;;5050806;28;20783;-54
2023/08/28 04:10:57;;;;;;;3.88;1.08;;;13.10;99.90;;;;;;5051611;28;20194;-53
2023/08/28 04:13:26;;;;;;;2.53;0.95;;;13.10;99.90;;;;;;5051291;28;20240;-58
2023/08/28 04:15:55;;;;;;;2.97;1.00;;;13.10;99.90;;;;;;5053252;28;20894;-53
2023/08/28 04:18:23;;;;;;;2.33;0.85;;;13.10;99.90;;;;;;5050992;28;20217;-53
2023/08/28 04:20:51;;;;;;;3.78;1.10;;;13.10;99.90;;;;;;5048268;28;20583;-53
2023/08/28 04:23:19;;;;;;;2.10;0.93;;;13.10;99.90;;;;;;5059177;22;20229;-57
2023/08/28 04:25:47;;;;;;;1.75;0.82;;;13.10;99.90;;;;;;5050750;28;20687;-57
2023/08/28 04:28:15;;;;;;;6.57;1.30;;;13.10;99.90;;;;;;5050376;28;20590;-56
2023/08/28 04:30:43;;;;;;;1.67;0.93;;;13.10;99.90;;;;;;5049896;28;20650;-57
2023/08/28 04:33:13;;;;;;;1.55;1.17;;;13.10;99.90;;;;;;5043815;28;20647;-57
2023/08/28 04:35:41;;;;;;;3.72;1.10;;;13.00;99.90;;;;;;5054240;28;20249;-57
2023/08/28 04:38:08;;;;;;;3.40;0.93;;;13.00;99.90;;;;;;5053921;28;20709;-57
2023/08/28 04:40:36;;;;;;;1.00;1.00;;;13.10;99.90;;;;;;5056812;28;20670;-57
2023/08/28 04:43:04;;;;;;;4.80;1.42;;;13.00;99.90;;;;;;5052734;28;20312;-57
2023/08/28 04:45:33;;;;;;;4.82;1.00;;;13.00;99.90;;;;;;5051579;28;20212;-57
2023/08/28 04:48:00;;;;;;;2.95;1.13;;;12.90;99.90;;;;;;5054511;28;20220;-57
2023/08/28 04:50:30;;;;;;;3.30;1.42;;;12.90;99.90;;;;;;5054448;28;20202;-57
2023/08/28 04:52:58;;;;;;;7.72;1.55;;;12.90;99.90;;;;;;5038142;28;20250;-57
2023/08/28 04:55:26;;;;;;;2.08;1.45;;;12.90;99.90;;;;;;5054276;28;20660;-57
2023/08/28 04:57:54;;;;;;;1.40;1.05;;;12.90;99.90;;;;;;5054430;28;20732;-57
2023/08/28 05:00:22;;;;;;;1.10;1.10;;;12.90;99.90;;;;;;5054224;28;20233;-57
2023/08/28 05:02:50;;;;;;;1.88;1.20;;;12.90;99.90;;;;;;5054507;28;20308;-57
2023/08/28 05:05:17;;;;;;;3.72;1.27;;;12.90;99.90;;;;;;5053819;28;20658;-58
2023/08/28 05:07:47;;;;;;;3.75;1.25;;;13.00;99.90;;;;;;5054151;28;20760;-57
2023/08/28 05:10:15;;;;;;;7.53;1.20;;;12.90;99.90;;;;;;5054122;28;20237;-57
2023/08/28 05:12:42;;;;;;;2.72;1.27;;;13.00;99.90;;;;;;5054022;28;20663;-56
2023/08/28 05:15:12;;;;;;;1.08;0.90;;;13.00;99.90;;;;;;5053647;28;20225;-58
2023/08/28 05:17:40;;;;;;;1.77;1.13;;;13.00;99.90;;;;;;5054170;28;20244;-57
2023/08/28 05:20:09;;;;;;;2.05;1.10;;;13.00;99.90;;;;;;5053936;28;20206;-57
2023/08/28 05:22:36;;;;;;;2.72;1.40;;;13.00;99.90;;;;;;5053590;28;20313;-57
2023/08/28 05:25:06;;;;;;;1.67;1.05;;;13.00;99.90;;;;;;5053585;28;20285;-58
2023/08/28 05:27:34;;;;;;;3.20;1.25;;;13.00;99.90;;;;;;5053577;28;20247;-57
2023/08/28 05:30:02;;;;;;;2.83;1.25;;;13.10;99.90;;;;;;5053799;28;20302;-60
2023/08/28 05:32:30;;;;;;;1.27;0.93;;;13.10;99.90;;;;;;5054107;28;20308;-60
2023/08/28 05:34:58;;;;;;;3.17;0.93;;;13.20;99.90;;;;;;5051906;28;20198;-61
2023/08/28 05:37:26;;;;;;;2.28;0.98;;;13.20;99.90;;;;;;5053699;28;20687;-60
2023/08/28 05:39:54;;;;;;;1.20;1.10;;;13.20;99.90;;;;;;5053652;28;20697;-60
2023/08/28 05:42:23;;;;;;;3.40;1.42;;;13.30;99.90;;;;;;5056141;28;20319;-61
2023/08/28 05:44:51;;;;;;;5.03;2.03;;;13.30;99.90;;;;;;5053112;28;20301;-61
2023/08/28 05:47:19;;;;;;;7.93;1.90;;;13.40;99.90;;;;;;5053541;28;20733;-60
2023/08/28 05:49:47;;;;;;;1.55;1.45;;;13.40;99.90;;;;;;5060812;28;20248;-60
2023/08/28 05:52:15;;;;;;;2.67;1.73;;;13.50;99.90;;;;;;5052764;28;20228;-61
2023/08/28 05:54:43;;;;;;;3.38;1.17;;;13.50;99.90;;;;;;5050214;28;20289;-62
2023/08/28 05:57:11;;;;;;;2.63;1.20;;;13.60;99.90;;;;;;5053735;28;20214;-61
2023/08/28 05:59:40;;;;;;;7.20;1.30;;;13.80;99.90;;;;;;5045162;28;20194;-62
2023/08/28 06:02:09;;;;;;;3.92;1.60;;;13.90;99.90;;;;;;5053490;28;20230;-60
2023/08/28 06:04:37;;;;;;;6.55;1.50;;;14.00;99.90;;;;;;5053190;28;20217;-59
2023/08/28 06:07:05;;;;;;;2.58;1.65;;;14.10;99.90;;;;;;5053335;28;20208;-60
2023/08/28 06:09:33;;;;;;;3.60;1.30;;;14.40;99.90;;;;;;5053031;28;20217;-61
2023/08/28 06:12:01;;;;;;;2.25;1.77;;;14.50;99.90;;;;;;5053242;28;20672;-61
2023/08/28 06:14:29;;;;;;;3.75;1.70;;;14.60;99.90;;;;;;5053322;28;20229;-61
2023/08/28 06:16:58;;;;;;;4.22;1.73;;;14.70;99.90;;;;;;5052945;28;20202;-61
2023/08/28 06:19:26;;;;;;;5.38;1.90;;;14.80;99.90;;;;;;5052679;28;20276;-61
2023/08/28 06:21:54;;;;;;;2.15;1.80;;;14.80;99.90;;;;;;5053008;28;20280;-61
2023/08/28 06:24:22;;;;;;;3.13;1.75;;;14.70;99.90;;;;;;5052293;28;20235;-60
2023/08/28 06:26:51;;;;;;;2.53;1.95;;;14.70;99.90;;;;;;5052326;28;20202;-61
2023/08/28 06:29:19;;;;;;;2.70;2.05;;;14.60;99.90;;;;;;5052547;28;20304;-60
2023/08/28 06:31:46;;;;;;;3.38;2.25;;;14.60;99.90;;;;;;5052479;28;20323;-61
2023/08/28 06:34:16;;;;;;;3.67;2.55;;;14.60;99.90;;;;;;5051562;28;20308;-60
2023/08/28 06:36:45;;;;;;;6.00;2.90;;;14.60;99.90;;;;;;5052157;28;20240;-60
2023/08/28 06:39:13;;;;;;;8.02;3.45;;;14.70;99.90;;;;;;5052539;28;20205;-60
2023/08/28 06:41:41;;;;;;;3.33;2.70;;;14.70;99.90;;;;;;5052300;28;20703;-60
2023/08/28 06:44:09;;;;;;;7.38;2.83;;;14.60;99.90;;;;;;5052347;28;20305;-60
2023/08/28 06:46:37;;;;;;;4.82;2.80;;;14.60;99.90;;;;;;5051707;28;20267;-60
2023/08/28 06:49:05;;;;;;;3.15;2.70;;;14.60;99.90;;;;;;5052395;28;20276;-60
2023/08/28 06:51:34;;;;;;;4.65;2.80;;;14.70;99.90;;;;;;5052355;28;20593;-60
2023/08/28 06:54:02;;;;;;;5.30;2.67;;;14.70;99.90;;;;;;5051696;28;20285;-59
2023/08/28 06:56:30;;;;;;;5.50;2.83;;;14.70;99.90;;;;;;5051948;28;20202;-61
2023/08/28 06:58:58;;;;;;;5.68;2.92;;;14.80;99.90;;;;;;5035699;28;20264;-60
2023/08/28 07:01:26;;;;;;;7.32;3.13;;;14.80;99.90;;;;;;5052122;28;20360;-60
2023/08/28 07:03:54;;;;;;;4.80;3.03;;;14.80;99.90;;;;;;5052294;28;20248;-60
2023/08/28 07:06:22;;;;;;;3.05;2.85;;;14.90;99.90;;;;;;5051950;28;20208;-60
2023/08/28 07:08:51;;;;;;;3.67;3.35;;;14.90;99.90;;;;;;5052029;28;20284;-64
2023/08/28 07:11:19;;;;;;;4.47;3.20;;;14.90;99.90;;;;;;5052462;28;20225;-61
2023/08/28 07:13:48;;;;;;;3.97;2.97;;;15.00;99.90;;;;;;5051720;28;20225;-60
2023/08/28 07:16:16;;;;;;;3.78;3.42;;;15.00;99.90;;;;;;5051785;28;20327;-60
2023/08/28 07:18:44;;;;;;;8.35;3.50;;;15.00;99.90;;;;;;5051949;28;20213;-60
2023/08/28 07:21:12;;;;;;;5.05;3.40;;;15.00;99.90;;;;;;5051646;28;20202;-60
2023/08/28 07:23:40;;;;;;;10.68;3.47;;;15.00;99.90;;;;;;5051521;28;20300;-60
2023/08/28 07:26:09;;;;;;;5.32;3.40;;;15.00;99.90;;;;;;5051268;28;20289;-60
2023/08/28 07:28:37;;;;;;;4.00;3.70;;;15.10;99.90;;;;;;5051734;28;20202;-60
2023/08/28 07:31:05;;;;;;;4.63;3.83;;;15.10;99.90;;;;;;5051705;28;20226;-60
2023/08/28 07:33:33;;;;;;;5.57;3.45;;;15.10;99.90;;;;;;5051679;28;20279;-60
2023/08/28 07:36:01;;;;;;;6.15;3.67;;;15.10;99.90;;;;;;5051040;28;20618;-61
2023/08/28 07:38:29;;;;;;;6.90;3.70;;;15.10;99.90;;;;;;5051434;28;20642;-60
2023/08/28 07:40:56;;;;;;;5.80;3.70;;;15.10;99.90;;;;;;5050525;28;20248;-60
2023/08/28 07:43:26;;;;;;;6.68;3.60;;;15.20;99.90;;;;;;5051601;28;20225;-60
2023/08/28 07:45:54;;;;;;;5.00;3.83;;;15.30;99.90;;;;;;5051002;28;20695;-60
2023/08/28 07:48:23;;;;;;;5.45;3.42;;;15.30;99.90;;;;;;5051384;28;20202;-61
2023/08/28 07:50:51;;;;;;;6.05;3.28;;;15.40;99.90;;;;;;5051071;28;20229;-60
2023/08/28 07:53:20;;;;;;;5.63;3.67;;;15.40;99.90;;;;;;5051121;28;20271;-60
2023/08/28 07:55:49;;;;;;;4.93;3.80;;;15.50;99.90;;;;;;5050949;28;20294;-61
2023/08/28 07:58:18;;;;;;;7.13;4.03;;;15.60;99.90;;;;;;5051233;28;20248;-61
2023/08/28 08:00:47;;;;;;;10.50;4.20;;;15.60;99.90;;;;;;5051070;28;20206;-61
2023/08/28 08:03:18;;;;;;;6.15;3.80;;;15.70;99.90;;;;;;5051090;28;20217;-60
2023/08/28 08:05:46;;;;;;;4.20;3.90;;;15.80;99.90;;;;;;5049756;28;20229;-60
2023/08/28 08:08:14;;;;;;;4.45;3.45;;;15.90;99.90;;;;;;5051381;28;20280;-60
2023/08/28 08:10:42;;;;;;;10.75;4.20;;;15.90;99.90;;;;;;5050968;28;20218;-60
2023/08/28 08:13:10;;;;;;;4.05;3.35;;;16.00;99.90;;;;;;5051125;28;20301;-60
2023/08/28 08:15:37;;;;;;;5.93;3.00;;;16.10;99.90;;;;;;5050620;28;20292;-60
2023/08/28 08:18:07;;;;;;;3.95;2.95;;;16.10;99.90;;;;;;5051049;28;20355;-60
2023/08/28 08:20:35;;;;;;;8.90;3.25;;;16.20;99.90;;;;;;5050596;28;20634;-61
2023/08/28 08:23:03;;;;;;;3.75;2.80;;;16.30;99.90;;;;;;5050680;28;20229;-61
2023/08/28 08:25:31;;;;;;;4.70;2.80;;;16.40;99.90;;;;;;5050646;28;20206;-60
2023/08/28 08:27:59;;;;;;;8.20;3.85;;;16.50;99.90;;;;;;5051041;28;20288;-60
2023/08/28 08:30:27;;;;;;;3.72;3.00;;;16.60;99.90;;;;;;5050751;28;20445;-61
2023/08/28 08:32:55;;;;;;;3.40;2.80;;;16.60;99.90;;;;;;5050600;28;20252;-61
2023/08/28 08:35:25;;;;;;;2.97;2.50;;;16.70;99.90;;;;;;5050689;28;20206;-66
2023/08/28 08:37:53;;;;;;;6.18;2.78;;;16.80;99.90;;;;;;5051074;28;20206;-61
2023/08/28 08:40:26;;;;;;;3.65;2.75;;;16.90;99.90;;;;;;5050893;28;20255;-61
2023/08/28 08:42:54;;;;;;;5.13;3.10;;;17.00;99.90;;;;;;5050722;28;20221;-61
2023/08/28 08:45:23;;;;;;;8.30;2.83;;;17.10;99.90;;;;;;5050212;28;20198;-60
2023/08/28 08:47:51;;;;;;;4.28;2.80;;;17.10;99.90;;;;;;5052405;28;20289;-61
2023/08/28 08:50:19;;;;;;;3.85;2.88;;;17.20;99.90;;;;;;5055851;28;20222;-61
2023/08/28 08:52:49;;;;;;;5.82;2.70;;;17.20;99.90;;;;;;5050633;28;20644;-59
2023/08/28 08:55:20;;;;;;;15.40;2.85;;;17.20;99.90;;;;;;5050437;28;20229;-60
2023/08/28 08:57:48;;;;;;;4.07;2.30;;;17.20;99.90;;;;;;5050584;28;20605;-61
2023/08/28 09:00:18;;;;;;;5.72;2.15;;;17.20;99.90;;;;;;5050661;28;20234;-60
2023/08/28 09:02:46;;;;;;;5.10;2.60;;;17.30;99.90;;;;;;5050662;28;20315;-60
2023/08/28 09:05:15;;;;;;;7.05;2.25;;;17.30;99.90;;;;;;5050535;28;20256;-61
2023/08/28 09:07:44;;;;;;;2.72;2.17;;;17.20;99.90;;;;;;5050753;28;20229;-61
2023/08/28 09:10:14;;;;;;;7.82;2.40;;;17.10;99.90;;;;;;5049565;28;20308;-62
2023/08/28 09:12:42;;;;;;;3.42;2.53;;;17.10;99.90;;;;;;5049590;28;20317;-62
2023/08/28 09:15:11;;;;;;;5.15;2.10;;;17.20;99.90;;;;;;5051316;28;20205;-62
2023/08/28 09:17:40;;;;;;;8.00;2.60;;;17.20;99.90;;;;;;5044012;28;20682;-61
2023/08/28 09:20:16;;;;;;;6.55;2.20;;;17.40;99.90;;;;;;5054195;28;20213;-60
2023/08/28 09:22:48;;;;;;;4.53;2.33;;;17.50;99.90;;;;;;5051700;28;20703;-62
2023/08/28 09:25:23;;;;;;;6.28;2.80;;;17.60;99.90;;;;;;5052979;28;20205;-62
2023/08/28 09:27:52;;;;;;;3.13;2.58;;;17.70;99.90;;;;;;5051075;28;20202;-63
2023/08/28 09:30:30;;;;;;;4.20;2.50;;;17.60;99.90;;;;;;5053290;28;20700;-60
2023/08/28 09:32:58;;;;;;;4.20;2.60;;;17.60;99.90;;;;;;5053815;28;20705;-62
2023/08/28 09:35:27;;;;;;;3.67;2.53;;;17.60;99.90;;;;;;5050872;28;20198;-61
2023/08/28 09:37:58;;;;;;;3.50;2.60;;;17.70;99.90;;;;;;5053982;28;20738;-63
2023/08/28 09:40:28;;;;;;;4.70;2.28;;;17.70;99.90;;;;;;5053685;28;20578;-62
2023/08/28 09:42:56;;;;;;;7.00;2.20;;;17.80;99.90;;;;;;5053832;28;20253;-61
2023/08/28 09:45:29;;;;;;;5.05;2.30;;;17.90;99.90;;;;;;5050715;28;20198;-62
2023/08/28 09:47:57;;;;;;;4.53;2.45;;;18.00;99.90;;;;;;5053696;28;20209;-61
2023/08/28 09:50:26;;;;;;;4.65;2.42;;;18.10;99.90;;;;;;5053962;28;20306;-61
2023/08/28 09:52:53;;;;;;;5.45;2.50;;;18.10;99.90;;;;;;5053279;28;20221;-60
2023/08/28 09:55:22;;;;;;;3.53;2.40;;;18.30;99.90;;;;;;5053364;28;20284;-62
2023/08/28 09:57:51;;;;;;;2.63;2.35;;;18.30;99.90;;;;;;5052819;28;20288;-60
2023/08/28 10:00:20;;;;;;;2.45;2.28;;;18.40;99.90;;;;;;5052468;28;20281;-60
2023/08/28 10:02:48;;;;;;;4.82;3.45;;;18.40;99.90;;;;;;5052793;28;20317;-62
2023/08/28 10:05:16;;;;;;;4.75;2.85;;;18.30;99.90;;;;;;5051734;28;20740;-62
2023/08/28 10:07:43;;;;;;;5.40;2.47;;;18.20;99.90;;;;;;5053611;28;20726;-59
2023/08/28 10:10:14;;;;;;;3.65;2.30;;;18.20;99.90;;;;;;5053441;28;20240;-57
2023/08/28 10:12:42;;;;;;;7.90;3.10;;;18.20;99.90;;;;;;5053409;28;20221;-58
2023/08/28 10:15:11;;;;;;;7.47;3.00;;;18.30;99.90;;;;;;5052903;28;20233;-58
2023/08/28 10:17:39;;;;;;;2.60;2.40;;;18.40;99.90;;;;;;5052137;28;20213;-59
2023/08/28 10:20:09;;;;;;;6.05;2.50;;;18.50;99.90;;;;;;5054540;28;20212;-60
2023/08/28 10:22:37;;;;;;;5.25;2.72;;;18.60;99.90;;;;;;5057120;22;20222;-59
2023/08/28 10:25:06;;;;;;;5.20;2.00;;;18.70;99.90;;;;;;5027782;28;20285;-59
2023/08/28 10:27:33;;;;;;;5.30;1.98;;;18.70;99.90;;;;;;5022285;28;20286;-60
2023/08/28 10:30:01;;;;;;;5.45;2.63;;;18.90;99.90;;;;;;5020184;28;20234;-60
2023/08/28 10:32:31;;;;;;;4.30;1.80;;;19.00;99.90;;;;;;5029456;28;20696;-59
2023/08/28 10:34:58;;;;;;;1.85;1.75;;;19.20;99.90;;;;;;5000723;28;20309;-59
2023/08/28 10:37:26;;;;;;;2.60;1.92;;;19.30;99.90;;;;;;5025763;28;20199;-58
2023/08/28 10:39:57;;;;;;;4.78;1.45;;;19.40;99.90;;;;;;5024487;28;20202;-60
2023/08/28 10:42:26;;;;;;;2.35;2.15;;;19.50;99.90;;;;;;5017869;28;20219;-58
2023/08/28 10:44:55;;;;;;;2.13;1.48;;;19.40;99.90;;;;;;5029047;28;20199;-58
2023/08/28 10:47:24;;;;;;;2.20;1.70;;;19.40;99.90;;;;;;5020547;28;20234;-60
2023/08/28 10:49:56;;;;;;;1.83;1.50;;;19.40;99.90;;;;;;5025202;28;20206;-58
2023/08/28 10:52:24;;;;;;;3.17;1.23;;;19.40;99.90;;;;;;5017460;28;20277;-57
2023/08/28 10:54:52;;;;;;;3.50;1.55;;;19.40;99.90;;;;;;5029295;28;20210;-57
2023/08/28 10:57:23;;;;;;;2.05;1.25;;;19.40;99.90;;;;;;5019594;28;20683;-57
2023/08/28 10:59:51;;;;;;;3.80;1.50;;;19.40;99.90;;;;;;5032631;28;20623;-58
2023/08/28 11:02:19;;;;;;;1.10;1.10;;;19.50;99.90;;;;;;5018091;28;20265;-60
2023/08/28 11:04:47;;;;;;;5.13;1.30;;;19.60;99.90;;;;;;5028921;28;20202;-58
2023/08/28 11:07:43;;;;;;;4.30;1.63;;;19.70;99.90;;;;;;5018615;28;20234;-58
2023/08/28 11:10:19;;;;;;;1.55;1.17;;;19.90;99.90;;;;;;5011628;28;20214;-58
2023/08/28 11:12:54;;;;;;;2.47;1.30;;;20.10;99.90;;;;;;5020598;28;20291;-58
2023/08/28 11:15:27;;;;;;;5.78;1.10;;;20.10;99.90;;;;;;5017617;28;20197;-57
2023/08/28 11:18:14;;;;;;;1.73;0.98;;;20.20;99.90;;;;;;5022026;28;20210;-60
2023/08/28 11:20:42;;;;;;;2.55;1.02;;;20.10;99.90;;;;;;5019383;28;20234;-57
2023/08/28 11:23:11;;;;;;;1.50;1.10;;;20.10;99.90;;;;;;5019913;28;20755;-57
2023/08/28 11:25:40;;;;;;;1.58;0.95;;;20.00;99.90;;;;;;5006645;28;20293;-60
2023/08/28 11:28:24;;;;;;;2.45;1.13;;;20.00;99.90;;;;;;5027742;28;20715;-57
2023/08/28 11:30:53;;;;;;;3.42;1.00;;;20.00;99.90;;;;;;5014841;28;20203;-58
2023/08/28 11:33:21;;;;;;;2.90;0.68;;;20.00;99.90;;;;;;5025607;28;20215;-57
2023/08/28 11:35:48;;;;;;;0.80;0.80;;;20.00;99.90;;;;;;5012900;28;20234;-61
2023/08/28 11:38:18;;;;;;;0.60;0.60;;;20.00;99.90;;;;;;5025130;28;20717;-60
2023/08/28 11:40:46;;;;;;;3.17;1.02;;;20.00;99.90;;;;;;5006837;28;20636;-61
2023/08/28 11:43:16;;;;;;;1.65;0.90;;;20.10;99.90;;;;;;5016167;28;20753;-61
2023/08/28 11:45:45;;;;;;;0.98;0.90;;;20.10;99.90;;;;;;5003831;28;20674;-59
2023/08/28 11:48:13;;;;;;;3.03;1.02;;;20.10;99.90;;;;;;5018432;28;20231;-61
2023/08/28 11:50:41;;;;;;;1.95;0.95;;;20.20;99.90;;;;;;5014207;28;20268;-61
2023/08/28 11:53:09;;;;;;;5.07;1.00;;;20.20;99.90;;;;;;5021790;28;20257;-60
2023/08/28 11:55:38;;;;;;;1.83;0.90;;;20.20;99.90;;;;;;5020031;28;20216;-60
2023/08/28 11:58:08;;;;;;;3.70;1.25;;;20.30;99.90;;;;;;5016736;28;20246;-61
2023/08/28 12:00:36;;;;;;;2.95;1.10;;;20.40;99.90;;;;;;5013026;28;20318;-61
2023/08/28 12:03:06;;;;;;;2.08;1.00;;;20.50;99.90;;;;;;5017544;28;20218;-60
2023/08/28 12:05:34;;;;;;;0.77;0.70;;;20.50;99.90;;;;;;5027145;28;20206;-58
2023/08/28 12:08:02;;;;;;;2.67;1.10;;;20.50;99.90;;;;;;5031078;28;20206;-58
2023/08/28 12:10:30;;;;;;;4.72;1.15;;;20.50;99.90;;;;;;5037493;28;20264;-57
2023/08/28 12:13:02;;;;;;;3.55;0.90;;;20.50;99.90;;;;;;5005417;28;20716;-56
2023/08/28 12:15:31;;;;;;;2.53;1.00;;;20.50;99.90;;;;;;5027764;28;20202;-55
2023/08/28 12:18:03;;;;;;;6.75;2.10;;;20.60;99.90;;;;;;5029269;28;20661;-58
2023/08/28 12:20:32;;;;;;;15.48;3.65;;;20.60;99.90;;;;;;5020210;28;20207;-56
2023/08/28 12:23:00;;;;;;;2.53;1.27;;;20.70;99.90;;;;;;5001762;28;20226;-55
2023/08/28 12:25:37;;;;;;;4.93;1.48;;;20.80;99.90;;;;;;5024097;28;20203;-55
2023/08/28 12:28:09;;;;;;;2.53;1.00;;;20.90;99.90;;;;;;5015476;28;20618;-55
2023/08/28 12:30:39;;;;;;;4.65;1.63;;;21.00;99.90;;;;;;5017491;28;20225;-56
2023/08/28 12:33:08;;;;;;;38.45;9.27;;;21.10;99.90;;;;;;5016075;28;20260;-57
2023/08/28 12:35:37;;;;;;;26.10;6.60;;;21.20;99.90;;;;;;5019973;28;20201;-57
2023/08/28 12:38:05;;;;;;;13.10;2.20;;;21.30;99.90;;;;;;5018468;28;20253;-56
2023/08/28 12:40:35;;;;;;;6.15;1.00;;;21.50;99.90;;;;;;5022693;28;20215;-58
2023/08/28 12:43:03;;;;;;;2.75;0.90;;;21.60;99.90;;;;;;5016566;28;20305;-56
2023/08/28 12:45:34;;;;;;;1.23;0.80;;;21.60;99.90;;;;;;5010437;28;20662;-57
2023/08/28 12:48:02;;;;;;;1.85;0.80;;;21.60;99.90;;;;;;5019683;28;21471;-57
2023/08/28 12:50:30;;;;;;;3.30;1.20;;;21.60;99.90;;;;;;5013781;28;20231;-58
2023/08/28 12:52:58;;;;;;;1.65;1.15;;;21.70;99.90;;;;;;5011746;28;20392;-59